createdAt,value
2018-11-12T00:01:12.446Z,10.60
2018-11-12T00:03:46.737Z,10.60
2018-11-12T00:06:20.981Z,10.60
2018-11-12T00:08:55.259Z,10.60
2018-11-12T00:11:29.546Z,10.70
2018-11-12T00:14:03.819Z,10.70
2018-11-12T00:16:38.130Z,10.80
2018-11-12T00:19:12.542Z,10.80
2018-11-12T00:21:46.845Z,10.90
2018-11-12T00:24:21.106Z,10.90
2018-11-12T00:26:55.405Z,10.90
2018-11-12T00:29:29.677Z,11.00
2018-11-12T00:32:03.947Z,11.00
2018-11-12T00:34:38.321Z,11.00
2018-11-12T00:37:12.583Z,11.00
2018-11-12T00:39:46.858Z,11.10
2018-11-12T00:42:21.106Z,11.10
2018-11-12T00:44:55.365Z,11.10
2018-11-12T00:47:29.646Z,11.20
2018-11-12T00:50:04.055Z,11.20
2018-11-12T00:52:38.420Z,11.20
2018-11-12T00:55:14.665Z,11.30
2018-11-12T00:57:48.937Z,11.30
2018-11-12T01:00:23.219Z,11.40
2018-11-12T01:02:57.489Z,11.40
2018-11-12T01:05:31.830Z,11.50
2018-11-12T01:08:06.115Z,11.50
2018-11-12T01:10:40.411Z,11.50
2018-11-12T01:13:14.743Z,11.50
2018-11-12T01:15:49.019Z,11.60
2018-11-12T01:18:23.257Z,11.50
2018-11-12T01:20:57.533Z,11.50
2018-11-12T01:23:31.774Z,11.50
2018-11-12T01:26:06.056Z,11.50
2018-11-12T01:28:40.378Z,11.60
2018-11-12T01:31:14.725Z,11.60
2018-11-12T01:33:49.037Z,11.60
2018-11-12T01:36:23.330Z,11.60
2018-11-12T01:38:57.601Z,11.70
2018-11-12T01:41:31.870Z,11.70
2018-11-12T01:44:06.185Z,11.70
2018-11-12T01:46:40.571Z,11.70
2018-11-12T01:49:14.861Z,11.70
2018-11-12T01:51:49.196Z,11.70
2018-11-12T01:54:23.437Z,11.70
2018-11-12T01:56:57.707Z,11.70
2018-11-12T01:59:31.999Z,11.70
2018-11-12T02:02:06.800Z,11.80
2018-11-12T02:04:41.068Z,11.80
2018-11-12T02:07:15.381Z,11.80
2018-11-12T02:09:49.652Z,11.80
2018-11-12T02:12:23.905Z,11.80
2018-11-12T02:14:58.189Z,11.80
2018-11-12T02:17:32.591Z,11.80
2018-11-12T02:20:08.526Z,11.80
2018-11-12T02:22:43.805Z,11.80
2018-11-12T02:25:18.626Z,11.80
2018-11-12T02:27:52.949Z,11.80
2018-11-12T02:30:32.479Z,11.80
2018-11-12T02:33:06.837Z,11.80
2018-11-12T02:35:41.015Z,11.80
2018-11-12T02:38:15.286Z,11.90
2018-11-12T02:40:49.549Z,11.90
2018-11-12T02:43:23.817Z,11.90
2018-11-12T02:45:58.086Z,11.90
2018-11-12T02:48:32.342Z,11.90
2018-11-12T02:51:06.934Z,11.90
2018-11-12T02:53:41.185Z,11.90
2018-11-12T02:56:15.482Z,11.90
2018-11-12T02:58:49.767Z,11.90
2018-11-12T03:01:24.070Z,11.90
2018-11-12T03:03:58.348Z,11.90
2018-11-12T03:06:32.626Z,11.90
2018-11-12T03:09:10.298Z,11.90
2018-11-12T03:11:44.595Z,11.90
2018-11-12T03:14:18.850Z,11.90
2018-11-12T03:16:53.182Z,11.90
2018-11-12T03:19:27.507Z,11.90
2018-11-12T03:22:01.754Z,12.00
2018-11-12T03:24:36.122Z,12.00
2018-11-12T03:27:10.398Z,12.00
2018-11-12T03:29:44.685Z,12.00
2018-11-12T03:32:18.949Z,12.00
2018-11-12T03:34:53.229Z,12.00
2018-11-12T03:37:27.491Z,11.90
2018-11-12T03:40:01.769Z,12.00
2018-11-12T03:42:36.041Z,12.00
2018-11-12T03:45:12.922Z,12.00
2018-11-12T03:47:47.179Z,12.00
2018-11-12T03:50:22.655Z,12.10
2018-11-12T03:52:56.976Z,12.10
2018-11-12T03:55:31.235Z,12.10
2018-11-12T03:58:06.054Z,12.20
2018-11-12T04:00:40.370Z,12.20
2018-11-12T04:03:14.702Z,12.20
2018-11-12T04:05:49.099Z,12.20
2018-11-12T04:08:23.389Z,12.20
2018-11-12T04:10:57.731Z,12.30
2018-11-12T04:13:32.074Z,12.30
2018-11-12T04:16:06.366Z,12.20
2018-11-12T04:18:40.652Z,12.20
2018-11-12T04:21:14.929Z,12.20
2018-11-12T04:23:49.187Z,12.30
2018-11-12T04:26:23.454Z,12.30
2018-11-12T04:28:57.689Z,12.30
2018-11-12T04:31:31.957Z,12.30
2018-11-12T04:34:06.583Z,12.40
2018-11-12T04:36:40.858Z,12.30
2018-11-12T04:39:15.173Z,12.30
2018-11-12T04:41:49.459Z,12.30
2018-11-12T04:44:23.741Z,12.30
2018-11-12T04:46:57.981Z,12.30
2018-11-12T04:49:32.247Z,12.30
2018-11-12T04:52:06.554Z,12.30
2018-11-12T04:54:40.831Z,12.20
2018-11-12T04:57:15.185Z,12.20
2018-11-12T04:59:49.467Z,12.20
2018-11-12T05:02:23.761Z,12.20
2018-11-12T05:04:58.603Z,12.30
2018-11-12T05:07:32.959Z,12.30
2018-11-12T05:10:09.552Z,12.30
2018-11-12T05:12:44.453Z,12.20
2018-11-12T05:15:20.017Z,12.20
2018-11-12T05:17:54.327Z,12.20
2018-11-12T05:20:29.687Z,12.30
2018-11-12T05:23:04.010Z,12.30
2018-11-12T05:25:38.423Z,12.30
2018-11-12T05:28:12.729Z,12.30
2018-11-12T05:30:47.109Z,12.30
2018-11-12T05:33:21.435Z,12.40
2018-11-12T05:35:55.757Z,12.30
2018-11-12T05:38:30.088Z,12.30
2018-11-12T05:41:04.471Z,12.30
2018-11-12T05:43:38.787Z,12.30
2018-11-12T05:46:13.154Z,12.40
2018-11-12T05:48:47.462Z,12.40
2018-11-12T05:51:21.852Z,12.40
2018-11-12T05:53:56.171Z,12.30
2018-11-12T05:56:30.482Z,12.20
2018-11-12T05:59:04.867Z,12.20
2018-11-12T06:01:39.143Z,12.20
2018-11-12T06:04:13.473Z,12.20
2018-11-12T06:06:47.788Z,12.20
2018-11-12T06:09:22.113Z,12.10
2018-11-12T06:11:56.397Z,12.10
2018-11-12T06:14:30.720Z,12.10
2018-11-12T06:17:05.190Z,12.10
2018-11-12T06:19:39.562Z,12.10
2018-11-12T06:22:13.868Z,12.10
2018-11-12T06:24:48.210Z,12.10
2018-11-12T06:27:22.481Z,12.10
2018-11-12T06:29:56.842Z,12.00
2018-11-12T06:32:31.178Z,12.00
2018-11-12T06:35:06.017Z,12.10
2018-11-12T06:37:40.430Z,12.10
2018-11-12T06:40:16.059Z,12.10
2018-11-12T06:42:50.454Z,12.20
2018-11-12T06:45:26.071Z,12.20
2018-11-12T06:48:00.742Z,12.20
2018-11-12T06:50:35.056Z,12.20
2018-11-12T06:53:09.407Z,12.20
2018-11-12T06:55:43.698Z,12.10
2018-11-12T06:58:18.005Z,12.10
2018-11-12T07:00:52.337Z,12.10
2018-11-12T07:03:26.573Z,12.10
2018-11-12T07:06:00.851Z,12.10
2018-11-12T07:08:35.111Z,12.10
2018-11-12T07:11:09.368Z,12.10
2018-11-12T07:13:43.642Z,12.10
2018-11-12T07:16:17.910Z,12.10
2018-11-12T07:18:52.619Z,12.10
2018-11-12T07:21:26.918Z,12.10
2018-11-12T07:24:01.195Z,12.10
2018-11-12T07:26:35.445Z,12.00
2018-11-12T07:29:09.737Z,12.00
2018-11-12T07:31:44.070Z,12.00
2018-11-12T07:34:18.405Z,12.00
2018-11-12T07:36:52.774Z,12.00
2018-11-12T07:39:27.026Z,12.00
2018-11-12T07:42:01.333Z,12.00
2018-11-12T07:44:35.577Z,12.00
2018-11-12T07:47:09.961Z,12.00
2018-11-12T07:49:44.206Z,12.00
2018-11-12T07:52:18.498Z,12.00
2018-11-12T07:54:52.882Z,12.00
2018-11-12T07:57:27.398Z,12.00
2018-11-12T08:00:01.809Z,12.00
2018-11-12T08:02:36.717Z,12.00
2018-11-12T08:05:11.710Z,12.00
2018-11-12T08:07:46.412Z,12.00
2018-11-12T08:10:20.697Z,12.00
2018-11-12T08:12:54.977Z,12.00
2018-11-12T08:15:29.241Z,12.00
2018-11-12T08:18:03.520Z,12.00
2018-11-12T08:20:37.821Z,12.00
2018-11-12T08:23:12.093Z,12.00
2018-11-12T08:25:46.346Z,12.00
2018-11-12T08:28:20.626Z,12.00
2018-11-12T08:30:54.879Z,12.00
2018-11-12T08:33:29.182Z,12.00
2018-11-12T08:36:03.475Z,12.00
2018-11-12T08:38:37.661Z,12.00
2018-11-12T08:41:12.000Z,12.00
2018-11-12T08:43:46.230Z,12.00
2018-11-12T08:46:20.487Z,12.00
2018-11-12T08:48:54.775Z,12.00
2018-11-12T08:51:29.081Z,12.10
2018-11-12T08:54:03.333Z,12.10
2018-11-12T08:56:37.645Z,12.10
2018-11-12T08:59:12.044Z,12.20
2018-11-12T09:01:46.235Z,12.20
2018-11-12T09:04:20.494Z,12.20
2018-11-12T09:06:54.748Z,12.20
2018-11-12T09:09:29.022Z,12.30
2018-11-12T09:12:03.287Z,12.30
2018-11-12T09:14:37.555Z,12.30
2018-11-12T09:17:11.799Z,12.30
2018-11-12T09:19:46.330Z,12.40
2018-11-12T09:22:20.589Z,12.40
2018-11-12T09:24:55.201Z,12.40
2018-11-12T09:27:29.523Z,12.40
2018-11-12T09:30:03.942Z,12.40
2018-11-12T09:32:38.627Z,12.40
2018-11-12T09:35:14.175Z,12.40
2018-11-12T09:37:49.529Z,12.40
2018-11-12T09:40:27.049Z,12.40
2018-11-12T09:43:01.312Z,12.40
2018-11-12T09:45:35.980Z,12.40
2018-11-12T09:48:10.226Z,12.50
2018-11-12T09:50:44.472Z,12.50
2018-11-12T09:53:18.731Z,12.50
2018-11-12T09:55:53.021Z,12.50
2018-11-12T09:58:27.311Z,12.50
2018-11-12T10:01:01.781Z,12.50
2018-11-12T10:03:37.400Z,12.50
2018-11-12T10:06:11.507Z,12.50
2018-11-12T10:08:46.343Z,12.60
2018-11-12T10:11:20.730Z,12.60
2018-11-12T10:13:55.252Z,12.60
2018-11-12T10:16:30.083Z,12.60
2018-11-12T10:19:01.686Z,12.60
2018-11-12T10:21:36.354Z,12.60
2018-11-12T10:24:10.724Z,12.60
2018-11-12T10:26:45.072Z,12.60
2018-11-12T10:29:19.435Z,12.70
2018-11-12T10:31:53.805Z,12.60
2018-11-12T10:34:28.109Z,12.70
2018-11-12T10:37:02.443Z,12.70
2018-11-12T10:39:36.815Z,12.60
2018-11-12T10:42:11.109Z,12.60
2018-11-12T10:44:45.415Z,12.60
2018-11-12T10:47:19.727Z,12.60
2018-11-12T10:49:54.788Z,12.60
2018-11-12T10:52:29.196Z,12.60
2018-11-12T10:55:05.367Z,12.60
2018-11-12T10:57:37.933Z,12.60
2018-11-12T11:00:26.642Z,12.60
2018-11-12T11:03:07.661Z,12.60
2018-11-12T11:05:43.106Z,12.60
2018-11-12T11:08:17.583Z,12.60
2018-11-12T11:10:51.873Z,12.70
2018-11-12T11:13:26.311Z,12.70
2018-11-12T11:16:00.671Z,12.80
2018-11-12T11:18:35.081Z,12.80
2018-11-12T11:21:09.589Z,12.90
2018-11-12T11:23:43.937Z,13.00
2018-11-12T11:26:18.295Z,13.00
2018-11-12T11:28:52.614Z,13.10
2018-11-12T11:31:27.065Z,13.10
2018-11-12T11:34:01.451Z,13.20
2018-11-12T11:36:35.881Z,13.10
2018-11-12T11:39:10.546Z,13.20
2018-11-12T11:41:44.871Z,13.20
2018-11-12T11:44:19.298Z,13.30
2018-11-12T11:46:53.641Z,13.30
2018-11-12T11:49:27.958Z,13.30
2018-11-12T11:52:02.262Z,13.30
2018-11-12T11:54:36.582Z,13.40
2018-11-12T11:57:11.019Z,13.40
2018-11-12T11:59:45.353Z,13.40
2018-11-12T12:02:19.751Z,13.40
2018-11-12T12:04:54.009Z,13.50
2018-11-12T12:07:28.317Z,13.50
2018-11-12T12:10:02.639Z,13.60
2018-11-12T12:12:36.961Z,13.60
2018-11-12T12:15:12.913Z,13.60
2018-11-12T12:17:47.273Z,13.60
2018-11-12T12:20:23.179Z,13.70
2018-11-12T12:22:57.454Z,13.70
2018-11-12T12:25:31.832Z,13.70
2018-11-12T12:28:06.323Z,13.70
2018-11-12T12:30:40.617Z,13.80
2018-11-12T12:33:14.944Z,13.80
2018-11-12T12:35:49.321Z,13.80
2018-11-12T12:38:23.608Z,13.90
2018-11-12T12:40:57.986Z,13.80
2018-11-12T12:43:32.319Z,13.90
2018-11-12T12:46:06.838Z,13.90
2018-11-12T12:48:41.221Z,13.90
2018-11-12T12:51:15.880Z,13.90
2018-11-12T12:56:33.595Z,13.90
2018-11-12T12:59:09.816Z,13.90
2018-11-12T13:04:48.852Z,13.90
2018-11-12T13:07:23.210Z,13.90
2018-11-12T13:10:05.989Z,14.00
2018-11-12T13:12:40.308Z,14.00
2018-11-12T13:15:16.112Z,14.00
2018-11-12T13:17:53.602Z,14.00
2018-11-12T13:20:35.123Z,14.00
2018-11-12T13:23:09.558Z,14.00
2018-11-12T13:26:05.729Z,14.00
2018-11-12T13:28:40.107Z,13.90
2018-11-12T13:31:14.433Z,13.90
2018-11-12T13:33:48.760Z,13.90
2018-11-12T13:36:23.125Z,13.90
2018-11-12T13:38:57.471Z,13.90
2018-11-12T13:41:31.827Z,13.90
2018-11-12T13:44:06.573Z,13.90
2018-11-12T13:46:46.109Z,13.90
2018-11-12T13:49:20.467Z,13.80
2018-11-12T13:51:54.898Z,13.90
2018-11-12T13:54:29.190Z,13.80
2018-11-12T13:57:03.559Z,13.90
2018-11-12T13:59:37.873Z,13.90
2018-11-12T14:02:12.213Z,13.90
2018-11-12T14:04:46.498Z,13.90
2018-11-12T14:07:20.788Z,13.90
2018-11-12T14:09:55.083Z,13.90
2018-11-12T14:12:29.374Z,13.90
2018-11-12T14:15:03.846Z,13.80
2018-11-12T14:17:38.625Z,13.80
2018-11-12T14:20:13.093Z,13.80
2018-11-12T14:22:47.425Z,13.70
2018-11-12T14:25:22.846Z,13.70
2018-11-12T14:27:57.959Z,13.60
2018-11-12T14:30:32.119Z,13.60
2018-11-12T14:33:06.510Z,13.60
2018-11-12T14:35:41.122Z,13.60
2018-11-12T14:38:15.214Z,13.60
2018-11-12T14:40:53.794Z,13.50
2018-11-12T14:43:28.206Z,13.50
2018-11-12T14:46:02.571Z,13.50
2018-11-12T14:48:36.928Z,13.50
2018-11-12T14:51:11.291Z,13.40
2018-11-12T14:53:45.571Z,13.40
2018-11-12T14:56:19.873Z,13.40
2018-11-12T14:58:54.206Z,13.40
2018-11-12T15:01:28.556Z,13.40
2018-11-12T15:04:02.860Z,13.30
2018-11-12T15:06:37.206Z,13.30
2018-11-12T15:09:12.222Z,13.20
2018-11-12T15:11:46.582Z,13.20
2018-11-12T15:14:20.873Z,13.20
2018-11-12T15:16:55.198Z,13.10
2018-11-12T15:19:29.546Z,13.10
2018-11-12T15:22:03.870Z,13.10
2018-11-12T15:24:38.178Z,13.10
2018-11-12T15:27:12.498Z,13.10
2018-11-12T15:29:46.798Z,13.00
2018-11-12T15:32:21.146Z,13.00
2018-11-12T15:34:55.438Z,13.00
2018-11-12T15:37:29.823Z,13.00
2018-11-12T15:40:04.237Z,12.90
2018-11-12T15:42:39.246Z,12.90
2018-11-12T15:45:17.025Z,12.90
2018-11-12T15:47:51.535Z,12.80
2018-11-12T15:50:27.666Z,12.80
2018-11-12T15:53:02.035Z,12.70
2018-11-12T15:55:36.370Z,12.70
2018-11-12T15:58:11.023Z,12.70
2018-11-12T16:00:45.378Z,12.70
2018-11-12T16:03:19.730Z,12.60
2018-11-12T16:05:54.133Z,12.60
2018-11-12T16:08:28.365Z,12.60
2018-11-12T16:11:02.743Z,12.60
2018-11-12T16:13:37.054Z,12.60
2018-11-12T16:16:11.340Z,12.60
2018-11-12T16:18:45.718Z,12.50
2018-11-12T16:21:20.026Z,12.50
2018-11-12T16:23:54.321Z,12.50
2018-11-12T16:26:28.641Z,12.60
2018-11-12T16:29:03.169Z,12.50
2018-11-12T16:31:37.446Z,12.50
2018-11-12T16:34:11.842Z,12.50
2018-11-12T16:36:46.209Z,12.50
2018-11-12T16:39:20.670Z,12.50
2018-11-12T16:41:54.957Z,12.50
2018-11-12T16:44:29.289Z,12.50
2018-11-12T16:47:03.697Z,12.50
2018-11-12T16:49:38.143Z,12.50
2018-11-12T16:52:12.453Z,12.50
2018-11-12T16:54:46.750Z,12.50
2018-11-12T16:57:21.047Z,12.40
2018-11-12T16:59:55.389Z,12.40
2018-11-12T17:02:29.770Z,12.40
2018-11-12T17:05:04.190Z,12.40
2018-11-12T17:07:38.594Z,12.50
2018-11-12T17:10:14.532Z,12.50
2018-11-12T17:12:49.174Z,12.50
2018-11-12T17:15:23.474Z,12.50
2018-11-12T17:17:57.822Z,12.50
2018-11-12T17:20:32.158Z,12.50
2018-11-12T17:23:06.509Z,12.50
2018-11-12T17:25:40.849Z,12.50
2018-11-12T17:28:15.156Z,12.50
2018-11-12T17:30:49.556Z,12.40
2018-11-12T17:33:23.861Z,12.40
2018-11-12T17:35:58.185Z,12.40
2018-11-12T17:38:32.498Z,12.30
2018-11-12T17:41:06.997Z,12.30
2018-11-12T17:43:41.379Z,12.30
2018-11-12T17:46:15.725Z,12.40
2018-11-12T17:48:50.043Z,12.40
2018-11-12T17:51:24.455Z,12.40
2018-11-12T17:53:58.815Z,12.40
2018-11-12T17:56:33.117Z,12.30
2018-11-12T17:59:07.869Z,12.30
2018-11-12T18:01:42.257Z,12.30
2018-11-12T18:04:16.543Z,12.30
2018-11-12T18:06:50.905Z,12.30
2018-11-12T18:09:25.211Z,12.30
2018-11-12T18:11:59.513Z,12.30
2018-11-12T18:14:33.841Z,12.40
2018-11-12T18:17:08.163Z,12.40
2018-11-12T18:19:42.461Z,12.40
2018-11-12T18:22:16.851Z,12.50
2018-11-12T18:24:51.143Z,12.50
2018-11-12T18:27:25.444Z,12.60
2018-11-12T18:29:59.812Z,12.60
2018-11-12T18:32:34.090Z,12.60
2018-11-12T18:35:08.727Z,12.70
2018-11-12T18:37:43.136Z,12.70
2018-11-12T18:40:18.989Z,12.80
2018-11-12T18:42:53.374Z,12.80
2018-11-12T18:45:28.265Z,12.80
2018-11-12T18:48:02.701Z,12.90
2018-11-12T18:50:37.285Z,12.90
2018-11-12T18:53:11.635Z,12.90
2018-11-12T18:55:45.921Z,12.90
2018-11-12T18:58:20.235Z,13.00
2018-11-12T19:00:54.585Z,13.00
2018-11-12T19:03:28.915Z,13.00
2018-11-12T19:06:03.279Z,13.00
2018-11-12T19:08:37.595Z,13.00
2018-11-12T19:11:11.905Z,13.00
2018-11-12T19:13:46.209Z,13.10
2018-11-12T19:16:20.517Z,13.10
2018-11-12T19:18:54.825Z,13.10
2018-11-12T19:21:29.153Z,13.10
2018-11-12T19:24:03.528Z,13.10
2018-11-12T19:26:37.819Z,13.10
2018-11-12T19:29:12.250Z,13.10
2018-11-12T19:31:46.566Z,13.10
2018-11-12T19:34:20.920Z,13.10
2018-11-12T19:36:55.255Z,13.10
2018-11-12T19:39:29.863Z,13.00
2018-11-12T19:42:04.226Z,13.00
2018-11-12T19:44:38.571Z,13.00
2018-11-12T19:47:12.907Z,13.00
2018-11-12T19:49:47.197Z,13.10
2018-11-12T19:52:21.562Z,13.10
2018-11-12T19:54:55.909Z,13.10
2018-11-12T19:57:30.258Z,13.00
2018-11-12T20:00:05.499Z,13.00
2018-11-12T20:02:40.430Z,13.00
2018-11-12T20:05:14.769Z,12.90
2018-11-12T20:07:49.085Z,12.90
2018-11-12T20:10:23.870Z,12.90
2018-11-12T20:12:58.301Z,12.80
2018-11-12T20:15:32.602Z,12.80
2018-11-12T20:18:07.137Z,12.80
2018-11-12T20:20:41.483Z,12.80
2018-11-12T20:23:15.886Z,12.80
2018-11-12T20:25:50.307Z,12.80
2018-11-12T20:28:24.593Z,12.70
2018-11-12T20:30:58.969Z,12.70
2018-11-12T20:33:33.299Z,12.60
2018-11-12T20:36:07.642Z,12.60
2018-11-12T20:38:42.020Z,12.60
2018-11-12T20:41:16.291Z,12.50
2018-11-12T20:43:50.854Z,12.50
2018-11-12T20:46:25.498Z,12.50
2018-11-12T20:48:59.807Z,12.50
2018-11-12T20:51:34.178Z,12.50
2018-11-12T20:54:08.569Z,12.50
2018-11-12T20:56:43.813Z,12.40
2018-11-12T20:59:18.254Z,12.40
2018-11-12T21:01:52.569Z,12.40
2018-11-12T21:04:27.182Z,12.30
2018-11-12T21:07:01.527Z,12.30
2018-11-12T21:09:35.911Z,12.30
2018-11-12T21:12:10.265Z,12.30
2018-11-12T21:14:44.593Z,12.30
2018-11-12T21:17:19.052Z,12.30
2018-11-12T21:19:53.418Z,12.30
2018-11-12T21:22:27.717Z,12.20
2018-11-12T21:25:02.103Z,12.20
2018-11-12T21:27:36.597Z,12.10
2018-11-12T21:30:13.969Z,12.10
2018-11-12T21:32:48.518Z,12.10
2018-11-12T21:35:22.908Z,12.00
2018-11-12T21:37:57.649Z,12.10
2018-11-12T21:40:31.947Z,12.10
2018-11-12T21:43:06.293Z,12.10
2018-11-12T21:45:40.570Z,12.10
2018-11-12T21:48:15.321Z,12.20
2018-11-12T21:50:49.653Z,12.20
2018-11-12T21:53:23.981Z,12.30
2018-11-12T21:55:58.295Z,12.30
2018-11-12T21:58:32.633Z,12.30
2018-11-12T22:01:06.936Z,12.40
2018-11-12T22:03:41.291Z,12.40
2018-11-12T22:06:15.590Z,12.40
2018-11-12T22:08:50.084Z,12.40
2018-11-12T22:11:24.390Z,12.40
2018-11-12T22:13:58.714Z,12.50
2018-11-12T22:16:33.139Z,12.50
2018-11-12T22:19:07.614Z,12.50
2018-11-12T22:21:41.857Z,12.50
2018-11-12T22:24:16.177Z,12.50
2018-11-12T22:26:50.465Z,12.40
2018-11-12T22:29:24.801Z,12.40
2018-11-12T22:31:59.164Z,12.40
2018-11-12T22:34:33.459Z,12.40
2018-11-12T22:37:07.766Z,12.40
2018-11-12T22:39:42.363Z,12.40
2018-11-12T22:42:16.714Z,12.40
2018-11-12T22:44:51.030Z,12.40
2018-11-12T22:47:25.382Z,12.40
2018-11-12T22:49:59.774Z,12.40
2018-11-12T22:52:34.074Z,12.40
2018-11-12T22:55:09.124Z,12.40
2018-11-12T22:57:43.532Z,12.30
2018-11-12T23:00:27.315Z,12.30
2018-11-12T23:03:01.605Z,12.30
2018-11-12T23:05:35.961Z,12.20
2018-11-12T23:08:10.730Z,12.20
2018-11-12T23:10:45.052Z,12.20
2018-11-12T23:13:19.365Z,12.20
2018-11-12T23:15:53.690Z,12.20
2018-11-12T23:18:27.994Z,12.20
2018-11-12T23:21:02.330Z,12.10
2018-11-12T23:23:36.633Z,12.10
2018-11-12T23:26:10.959Z,12.00
2018-11-12T23:28:45.306Z,11.90
2018-11-12T23:31:19.790Z,11.90
2018-11-12T23:33:54.225Z,11.90
2018-11-12T23:36:28.839Z,11.80
2018-11-12T23:39:03.246Z,11.70
2018-11-12T23:41:37.805Z,11.70
2018-11-12T23:44:12.085Z,11.60
2018-11-12T23:46:46.646Z,11.60
2018-11-12T23:49:21.005Z,11.60
2018-11-12T23:51:55.430Z,11.60
2018-11-12T23:54:29.738Z,11.60
2018-11-12T23:57:04.133Z,11.60
2018-11-12T23:59:38.419Z,11.60
